sensor_id;sensor_type;location;lat;lon;timestamp;P1;durP1;ratioP1;P2;durP2;ratioP2
18443;SDS011;9350;53.176;8.194;2023-11-19T00:02:19;25.83;;;13.82;;
18443;SDS011;9350;53.176;8.194;2023-11-19T00:04:46;25.80;;;14.30;;
18443;SDS011;9350;53.176;8.194;2023-11-19T00:07:13;22.67;;;13.35;;
18443;SDS011;9350;53.176;8.194;2023-11-19T00:09:40;26.65;;;13.40;;
18443;SDS011;9350;53.176;8.194;2023-11-19T00:12:08;28.65;;;14.85;;
18443;SDS011;9350;53.176;8.194;2023-11-19T00:14:35;26.83;;;14.77;;
18443;SDS011;9350;53.176;8.194;2023-11-19T00:17:02;29.05;;;14.45;;
18443;SDS011;9350;53.176;8.194;2023-11-19T00:19:31;26.15;;;14.23;;
18443;SDS011;9350;53.176;8.194;2023-11-19T00:21:58;31.17;;;15.30;;
18443;SDS011;9350;53.176;8.194;2023-11-19T00:24:27;28.25;;;14.27;;
18443;SDS011;9350;53.176;8.194;2023-11-19T00:26:54;29.85;;;15.40;;
18443;SDS011;9350;53.176;8.194;2023-11-19T00:29:21;32.03;;;14.63;;
18443;SDS011;9350;53.176;8.194;2023-11-19T00:31:48;28.30;;;14.95;;
18443;SDS011;9350;53.176;8.194;2023-11-19T00:34:14;27.98;;;14.85;;
18443;SDS011;9350;53.176;8.194;2023-11-19T00:36:42;28.73;;;15.10;;
18443;SDS011;9350;53.176;8.194;2023-11-19T00:39:09;30.17;;;14.60;;
18443;SDS011;9350;53.176;8.194;2023-11-19T00:41:36;26.85;;;14.93;;
18443;SDS011;9350;53.176;8.194;2023-11-19T00:44:03;30.38;;;14.57;;
18443;SDS011;9350;53.176;8.194;2023-11-19T00:46:30;28.25;;;14.88;;
18443;SDS011;9350;53.176;8.194;2023-11-19T00:48:57;31.42;;;15.85;;
18443;SDS011;9350;53.176;8.194;2023-11-19T00:51:25;28.52;;;14.23;;
18443;SDS011;9350;53.176;8.194;2023-11-19T00:53:53;27.85;;;14.75;;
18443;SDS011;9350;53.176;8.194;2023-11-19T00:56:20;31.65;;;14.75;;
18443;SDS011;9350;53.176;8.194;2023-11-19T00:58:47;33.40;;;16.17;;
18443;SDS011;9350;53.176;8.194;2023-11-19T01:01:13;29.77;;;15.60;;
18443;SDS011;9350;53.176;8.194;2023-11-19T01:03:40;32.78;;;15.68;;
18443;SDS011;9350;53.176;8.194;2023-11-19T01:06:07;35.20;;;15.60;;
18443;SDS011;9350;53.176;8.194;2023-11-19T01:08:34;33.97;;;16.10;;
18443;SDS011;9350;53.176;8.194;2023-11-19T01:11:02;31.92;;;15.13;;
18443;SDS011;9350;53.176;8.194;2023-11-19T01:13:29;29.67;;;14.27;;
18443;SDS011;9350;53.176;8.194;2023-11-19T01:15:56;28.48;;;14.13;;
18443;SDS011;9350;53.176;8.194;2023-11-19T01:18:23;30.90;;;14.35;;
18443;SDS011;9350;53.176;8.194;2023-11-19T01:20:49;25.42;;;13.30;;
18443;SDS011;9350;53.176;8.194;2023-11-19T01:23:16;27.45;;;12.48;;
18443;SDS011;9350;53.176;8.194;2023-11-19T01:25:43;26.52;;;12.38;;
18443;SDS011;9350;53.176;8.194;2023-11-19T01:28:11;27.02;;;13.40;;
18443;SDS011;9350;53.176;8.194;2023-11-19T01:30:37;26.40;;;12.25;;
18443;SDS011;9350;53.176;8.194;2023-11-19T01:33:04;26.25;;;12.77;;
18443;SDS011;9350;53.176;8.194;2023-11-19T01:35:32;25.75;;;13.13;;
18443;SDS011;9350;53.176;8.194;2023-11-19T01:37:59;27.98;;;12.63;;
18443;SDS011;9350;53.176;8.194;2023-11-19T01:40:25;27.25;;;12.18;;
18443;SDS011;9350;53.176;8.194;2023-11-19T01:42:52;32.20;;;12.68;;
18443;SDS011;9350;53.176;8.194;2023-11-19T01:45:26;30.88;;;13.52;;
18443;SDS011;9350;53.176;8.194;2023-11-19T01:47:55;35.58;;;14.80;;
18443;SDS011;9350;53.176;8.194;2023-11-19T01:50:22;32.42;;;14.32;;
18443;SDS011;9350;53.176;8.194;2023-11-19T01:52:50;34.13;;;13.48;;
18443;SDS011;9350;53.176;8.194;2023-11-19T01:55:17;32.03;;;13.98;;
18443;SDS011;9350;53.176;8.194;2023-11-19T01:57:43;36.08;;;14.43;;
18443;SDS011;9350;53.176;8.194;2023-11-19T02:00:11;32.67;;;14.52;;
18443;SDS011;9350;53.176;8.194;2023-11-19T02:02:41;33.80;;;13.95;;
18443;SDS011;9350;53.176;8.194;2023-11-19T02:05:09;33.90;;;13.57;;
18443;SDS011;9350;53.176;8.194;2023-11-19T02:07:36;33.45;;;13.88;;
18443;SDS011;9350;53.176;8.194;2023-11-19T02:10:03;35.80;;;13.80;;
18443;SDS011;9350;53.176;8.194;2023-11-19T02:12:31;35.75;;;14.32;;
18443;SDS011;9350;53.176;8.194;2023-11-19T02:14:58;37.25;;;14.63;;
18443;SDS011;9350;53.176;8.194;2023-11-19T02:17:26;30.80;;;13.88;;
18443;SDS011;9350;53.176;8.194;2023-11-19T02:19:54;35.78;;;13.57;;
18443;SDS011;9350;53.176;8.194;2023-11-19T02:22:21;37.47;;;14.32;;
18443;SDS011;9350;53.176;8.194;2023-11-19T02:24:48;39.47;;;14.98;;
18443;SDS011;9350;53.176;8.194;2023-11-19T02:27:20;35.63;;;13.45;;
18443;SDS011;9350;53.176;8.194;2023-11-19T02:29:57;40.80;;;14.27;;
18443;SDS011;9350;53.176;8.194;2023-11-19T02:32:27;38.47;;;15.02;;
18443;SDS011;9350;53.176;8.194;2023-11-19T02:34:55;39.05;;;14.85;;
18443;SDS011;9350;53.176;8.194;2023-11-19T02:37:22;46.25;;;15.30;;
18443;SDS011;9350;53.176;8.194;2023-11-19T02:39:49;55.63;;;15.98;;
18443;SDS011;9350;53.176;8.194;2023-11-19T02:42:15;46.97;;;15.40;;
18443;SDS011;9350;53.176;8.194;2023-11-19T02:44:43;50.63;;;16.52;;
18443;SDS011;9350;53.176;8.194;2023-11-19T02:47:11;53.25;;;17.13;;
18443;SDS011;9350;53.176;8.194;2023-11-19T02:49:38;53.50;;;16.63;;
18443;SDS011;9350;53.176;8.194;2023-11-19T02:52:05;47.42;;;15.93;;
18443;SDS011;9350;53.176;8.194;2023-11-19T02:54:35;47.20;;;16.50;;
18443;SDS011;9350;53.176;8.194;2023-11-19T02:57:02;54.50;;;16.05;;
18443;SDS011;9350;53.176;8.194;2023-11-19T02:59:29;54.97;;;16.65;;
18443;SDS011;9350;53.176;8.194;2023-11-19T03:02:03;47.60;;;16.05;;
18443;SDS011;9350;53.176;8.194;2023-11-19T03:04:32;49.20;;;16.08;;
18443;SDS011;9350;53.176;8.194;2023-11-19T03:06:59;63.85;;;16.50;;
18443;SDS011;9350;53.176;8.194;2023-11-19T03:09:26;50.78;;;15.77;;
18443;SDS011;9350;53.176;8.194;2023-11-19T03:11:54;54.25;;;16.33;;
18443;SDS011;9350;53.176;8.194;2023-11-19T03:14:21;57.17;;;16.75;;
18443;SDS011;9350;53.176;8.194;2023-11-19T03:16:48;48.35;;;15.32;;
18443;SDS011;9350;53.176;8.194;2023-11-19T03:19:15;43.30;;;15.85;;
18443;SDS011;9350;53.176;8.194;2023-11-19T03:21:43;45.08;;;15.30;;
18443;SDS011;9350;53.176;8.194;2023-11-19T03:24:11;47.72;;;15.15;;
18443;SDS011;9350;53.176;8.194;2023-11-19T03:26:40;48.70;;;15.18;;
18443;SDS011;9350;53.176;8.194;2023-11-19T03:29:07;60.88;;;16.00;;
18443;SDS011;9350;53.176;8.194;2023-11-19T03:31:34;46.47;;;15.52;;
18443;SDS011;9350;53.176;8.194;2023-11-19T03:34:01;49.95;;;15.35;;
18443;SDS011;9350;53.176;8.194;2023-11-19T03:36:31;54.50;;;16.20;;
18443;SDS011;9350;53.176;8.194;2023-11-19T03:39:00;56.20;;;15.40;;
18443;SDS011;9350;53.176;8.194;2023-11-19T03:41:28;52.60;;;14.55;;
18443;SDS011;9350;53.176;8.194;2023-11-19T03:43:55;61.17;;;16.20;;
18443;SDS011;9350;53.176;8.194;2023-11-19T03:46:22;56.22;;;14.75;;
18443;SDS011;9350;53.176;8.194;2023-11-19T03:48:49;52.38;;;13.93;;
18443;SDS011;9350;53.176;8.194;2023-11-19T03:51:16;58.60;;;14.30;;
18443;SDS011;9350;53.176;8.194;2023-11-19T03:53:43;54.42;;;13.75;;
18443;SDS011;9350;53.176;8.194;2023-11-19T03:56:11;51.42;;;13.82;;
18443;SDS011;9350;53.176;8.194;2023-11-19T03:58:38;60.60;;;13.68;;
18443;SDS011;9350;53.176;8.194;2023-11-19T04:01:05;55.47;;;13.23;;
18443;SDS011;9350;53.176;8.194;2023-11-19T04:03:32;54.03;;;12.95;;
18443;SDS011;9350;53.176;8.194;2023-11-19T04:05:58;58.65;;;13.60;;
18443;SDS011;9350;53.176;8.194;2023-11-19T04:08:25;52.40;;;13.98;;
18443;SDS011;9350;53.176;8.194;2023-11-19T04:10:52;64.13;;;13.65;;
18443;SDS011;9350;53.176;8.194;2023-11-19T04:13:20;64.18;;;12.82;;
18443;SDS011;9350;53.176;8.194;2023-11-19T04:15:47;44.60;;;12.45;;
18443;SDS011;9350;53.176;8.194;2023-11-19T04:18:15;64.85;;;13.13;;
18443;SDS011;9350;53.176;8.194;2023-11-19T04:20:42;67.35;;;13.50;;
18443;SDS011;9350;53.176;8.194;2023-11-19T04:23:08;63.35;;;12.63;;
18443;SDS011;9350;53.176;8.194;2023-11-19T04:25:36;72.22;;;12.57;;
18443;SDS011;9350;53.176;8.194;2023-11-19T04:28:03;59.55;;;12.45;;
18443;SDS011;9350;53.176;8.194;2023-11-19T04:30:31;57.17;;;12.88;;
18443;SDS011;9350;53.176;8.194;2023-11-19T04:32:58;61.35;;;12.35;;
18443;SDS011;9350;53.176;8.194;2023-11-19T04:35:24;47.60;;;12.40;;
18443;SDS011;9350;53.176;8.194;2023-11-19T04:37:51;48.72;;;11.27;;
18443;SDS011;9350;53.176;8.194;2023-11-19T04:40:18;55.28;;;11.60;;
18443;SDS011;9350;53.176;8.194;2023-11-19T04:42:47;52.20;;;11.63;;
18443;SDS011;9350;53.176;8.194;2023-11-19T04:45:14;63.95;;;11.15;;
18443;SDS011;9350;53.176;8.194;2023-11-19T04:47:42;73.90;;;12.15;;
18443;SDS011;9350;53.176;8.194;2023-11-19T04:50:09;59.45;;;11.55;;
18443;SDS011;9350;53.176;8.194;2023-11-19T04:52:37;45.78;;;10.98;;
18443;SDS011;9350;53.176;8.194;2023-11-19T04:55:05;60.13;;;11.45;;
18443;SDS011;9350;53.176;8.194;2023-11-19T04:57:32;64.05;;;11.05;;
18443;SDS011;9350;53.176;8.194;2023-11-19T04:59:59;44.88;;;11.38;;
18443;SDS011;9350;53.176;8.194;2023-11-19T05:02:25;52.40;;;10.73;;
18443;SDS011;9350;53.176;8.194;2023-11-19T05:04:53;60.13;;;11.02;;
18443;SDS011;9350;53.176;8.194;2023-11-19T05:07:20;44.35;;;10.63;;
18443;SDS011;9350;53.176;8.194;2023-11-19T05:09:47;47.78;;;10.10;;
18443;SDS011;9350;53.176;8.194;2023-11-19T05:12:14;47.65;;;9.90;;
18443;SDS011;9350;53.176;8.194;2023-11-19T05:14:41;52.03;;;10.00;;
18443;SDS011;9350;53.176;8.194;2023-11-19T05:17:13;49.47;;;9.23;;
18443;SDS011;9350;53.176;8.194;2023-11-19T05:19:40;69.32;;;9.75;;
18443;SDS011;9350;53.176;8.194;2023-11-19T05:22:08;58.90;;;8.65;;
18443;SDS011;9350;53.176;8.194;2023-11-19T05:24:34;54.60;;;8.32;;
18443;SDS011;9350;53.176;8.194;2023-11-19T05:27:01;49.72;;;7.80;;
18443;SDS011;9350;53.176;8.194;2023-11-19T05:29:28;63.55;;;7.57;;
18443;SDS011;9350;53.176;8.194;2023-11-19T05:31:55;54.40;;;7.75;;
18443;SDS011;9350;53.176;8.194;2023-11-19T05:34:22;48.83;;;8.13;;
18443;SDS011;9350;53.176;8.194;2023-11-19T05:36:49;52.72;;;8.38;;
18443;SDS011;9350;53.176;8.194;2023-11-19T05:39:18;52.08;;;7.40;;
18443;SDS011;9350;53.176;8.194;2023-11-19T05:41:45;50.70;;;7.90;;
18443;SDS011;9350;53.176;8.194;2023-11-19T05:44:11;58.42;;;6.75;;
18443;SDS011;9350;53.176;8.194;2023-11-19T05:46:38;51.58;;;6.50;;
18443;SDS011;9350;53.176;8.194;2023-11-19T05:49:07;53.92;;;7.05;;
18443;SDS011;9350;53.176;8.194;2023-11-19T05:51:36;52.75;;;6.97;;
18443;SDS011;9350;53.176;8.194;2023-11-19T05:54:03;67.82;;;7.13;;
18443;SDS011;9350;53.176;8.194;2023-11-19T05:56:33;55.63;;;6.32;;
18443;SDS011;9350;53.176;8.194;2023-11-19T05:59:00;49.13;;;6.15;;
18443;SDS011;9350;53.176;8.194;2023-11-19T06:01:28;74.93;;;6.85;;
18443;SDS011;9350;53.176;8.194;2023-11-19T06:03:55;66.10;;;8.10;;
18443;SDS011;9350;53.176;8.194;2023-11-19T06:06:21;63.22;;;6.25;;
18443;SDS011;9350;53.176;8.194;2023-11-19T06:08:49;58.80;;;6.40;;
18443;SDS011;9350;53.176;8.194;2023-11-19T06:11:15;50.95;;;6.25;;
18443;SDS011;9350;53.176;8.194;2023-11-19T06:13:46;67.28;;;7.30;;
18443;SDS011;9350;53.176;8.194;2023-11-19T06:16:16;63.25;;;6.45;;
18443;SDS011;9350;53.176;8.194;2023-11-19T06:18:42;54.08;;;6.88;;
18443;SDS011;9350;53.176;8.194;2023-11-19T06:21:09;75.13;;;7.13;;
18443;SDS011;9350;53.176;8.194;2023-11-19T06:23:36;81.40;;;6.95;;
18443;SDS011;9350;53.176;8.194;2023-11-19T06:26:03;69.47;;;6.90;;
18443;SDS011;9350;53.176;8.194;2023-11-19T06:28:30;73.18;;;6.68;;
18443;SDS011;9350;53.176;8.194;2023-11-19T06:30:59;68.68;;;6.78;;
18443;SDS011;9350;53.176;8.194;2023-11-19T06:33:25;72.43;;;6.32;;
18443;SDS011;9350;53.176;8.194;2023-11-19T06:35:52;71.70;;;7.03;;
18443;SDS011;9350;53.176;8.194;2023-11-19T06:38:19;68.90;;;6.70;;
18443;SDS011;9350;53.176;8.194;2023-11-19T06:40:46;67.88;;;6.65;;
18443;SDS011;9350;53.176;8.194;2023-11-19T06:43:13;59.75;;;7.03;;
18443;SDS011;9350;53.176;8.194;2023-11-19T06:45:40;63.88;;;7.13;;
18443;SDS011;9350;53.176;8.194;2023-11-19T06:48:08;69.65;;;6.90;;
18443;SDS011;9350;53.176;8.194;2023-11-19T06:50:35;67.47;;;7.75;;
18443;SDS011;9350;53.176;8.194;2023-11-19T06:53:02;65.55;;;7.75;;
18443;SDS011;9350;53.176;8.194;2023-11-19T06:55:30;53.83;;;6.47;;
18443;SDS011;9350;53.176;8.194;2023-11-19T06:57:57;74.68;;;7.03;;
18443;SDS011;9350;53.176;8.194;2023-11-19T07:00:25;70.13;;;7.03;;
18443;SDS011;9350;53.176;8.194;2023-11-19T07:02:52;71.53;;;7.53;;
18443;SDS011;9350;53.176;8.194;2023-11-19T07:05:20;64.85;;;7.55;;
18443;SDS011;9350;53.176;8.194;2023-11-19T07:07:46;67.75;;;6.90;;
18443;SDS011;9350;53.176;8.194;2023-11-19T07:10:13;63.10;;;7.28;;
18443;SDS011;9350;53.176;8.194;2023-11-19T07:12:40;73.65;;;6.95;;
18443;SDS011;9350;53.176;8.194;2023-11-19T07:15:08;75.72;;;8.75;;
18443;SDS011;9350;53.176;8.194;2023-11-19T07:17:35;79.10;;;7.28;;
18443;SDS011;9350;53.176;8.194;2023-11-19T07:20:02;58.85;;;7.13;;
18443;SDS011;9350;53.176;8.194;2023-11-19T07:22:30;73.53;;;7.25;;
18443;SDS011;9350;53.176;8.194;2023-11-19T07:24:57;57.72;;;6.63;;
18443;SDS011;9350;53.176;8.194;2023-11-19T07:27:24;60.05;;;6.20;;
18443;SDS011;9350;53.176;8.194;2023-11-19T07:29:50;61.90;;;5.70;;
18443;SDS011;9350;53.176;8.194;2023-11-19T07:32:17;92.28;;;7.13;;
18443;SDS011;9350;53.176;8.194;2023-11-19T07:34:44;71.40;;;8.05;;
18443;SDS011;9350;53.176;8.194;2023-11-19T07:37:10;67.82;;;6.93;;
18443;SDS011;9350;53.176;8.194;2023-11-19T07:39:38;57.75;;;6.53;;
18443;SDS011;9350;53.176;8.194;2023-11-19T07:42:06;65.82;;;7.07;;
18443;SDS011;9350;53.176;8.194;2023-11-19T07:44:34;58.55;;;6.72;;
18443;SDS011;9350;53.176;8.194;2023-11-19T07:47:01;60.90;;;6.80;;
18443;SDS011;9350;53.176;8.194;2023-11-19T07:49:28;80.20;;;6.60;;
18443;SDS011;9350;53.176;8.194;2023-11-19T07:51:55;59.47;;;6.60;;
18443;SDS011;9350;53.176;8.194;2023-11-19T07:54:22;75.55;;;6.95;;
18443;SDS011;9350;53.176;8.194;2023-11-19T07:56:50;67.95;;;6.63;;
18443;SDS011;9350;53.176;8.194;2023-11-19T07:59:17;63.58;;;6.53;;
18443;SDS011;9350;53.176;8.194;2023-11-19T08:01:44;73.22;;;7.22;;
18443;SDS011;9350;53.176;8.194;2023-11-19T08:04:10;66.72;;;7.10;;
18443;SDS011;9350;53.176;8.194;2023-11-19T08:06:37;67.80;;;6.28;;
18443;SDS011;9350;53.176;8.194;2023-11-19T08:09:04;75.63;;;6.38;;
18443;SDS011;9350;53.176;8.194;2023-11-19T08:11:31;62.97;;;6.55;;
18443;SDS011;9350;53.176;8.194;2023-11-19T08:13:59;75.05;;;6.90;;
18443;SDS011;9350;53.176;8.194;2023-11-19T08:16:26;61.08;;;6.53;;
18443;SDS011;9350;53.176;8.194;2023-11-19T08:18:53;55.63;;;6.07;;
18443;SDS011;9350;53.176;8.194;2023-11-19T08:21:19;59.85;;;5.75;;
18443;SDS011;9350;53.176;8.194;2023-11-19T08:23:47;71.03;;;6.40;;
18443;SDS011;9350;53.176;8.194;2023-11-19T08:26:14;60.53;;;5.35;;
18443;SDS011;9350;53.176;8.194;2023-11-19T08:28:41;56.78;;;6.45;;
18443;SDS011;9350;53.176;8.194;2023-11-19T08:31:09;69.45;;;7.10;;
18443;SDS011;9350;53.176;8.194;2023-11-19T08:33:35;59.03;;;5.93;;
18443;SDS011;9350;53.176;8.194;2023-11-19T08:36:03;53.25;;;5.80;;
18443;SDS011;9350;53.176;8.194;2023-11-19T08:38:30;65.95;;;6.15;;
18443;SDS011;9350;53.176;8.194;2023-11-19T08:40:56;61.25;;;6.05;;
18443;SDS011;9350;53.176;8.194;2023-11-19T08:43:24;64.15;;;5.85;;
18443;SDS011;9350;53.176;8.194;2023-11-19T08:45:51;59.35;;;5.35;;
18443;SDS011;9350;53.176;8.194;2023-11-19T08:48:19;56.85;;;6.15;;
18443;SDS011;9350;53.176;8.194;2023-11-19T08:50:46;77.90;;;6.97;;
18443;SDS011;9350;53.176;8.194;2023-11-19T08:53:13;72.70;;;6.65;;
18443;SDS011;9350;53.176;8.194;2023-11-19T08:55:40;66.72;;;6.05;;
18443;SDS011;9350;53.176;8.194;2023-11-19T08:58:07;68.05;;;6.18;;
18443;SDS011;9350;53.176;8.194;2023-11-19T09:00:33;55.72;;;6.60;;
18443;SDS011;9350;53.176;8.194;2023-11-19T09:03:00;58.88;;;6.03;;
18443;SDS011;9350;53.176;8.194;2023-11-19T09:05:28;64.93;;;6.00;;
18443;SDS011;9350;53.176;8.194;2023-11-19T09:07:55;56.85;;;6.38;;
18443;SDS011;9350;53.176;8.194;2023-11-19T09:10:21;57.95;;;5.90;;
18443;SDS011;9350;53.176;8.194;2023-11-19T09:12:48;68.90;;;6.78;;
18443;SDS011;9350;53.176;8.194;2023-11-19T09:15:15;58.95;;;5.85;;
18443;SDS011;9350;53.176;8.194;2023-11-19T09:17:41;60.40;;;5.95;;
18443;SDS011;9350;53.176;8.194;2023-11-19T09:20:08;57.22;;;6.22;;
18443;SDS011;9350;53.176;8.194;2023-11-19T09:22:38;54.78;;;6.05;;
18443;SDS011;9350;53.176;8.194;2023-11-19T09:25:05;73.55;;;7.93;;
18443;SDS011;9350;53.176;8.194;2023-11-19T09:27:33;49.60;;;5.65;;
18443;SDS011;9350;53.176;8.194;2023-11-19T09:29:59;55.05;;;5.97;;
18443;SDS011;9350;53.176;8.194;2023-11-19T09:32:26;66.97;;;6.95;;
18443;SDS011;9350;53.176;8.194;2023-11-19T09:34:53;62.33;;;6.28;;
18443;SDS011;9350;53.176;8.194;2023-11-19T09:37:20;52.53;;;5.22;;
18443;SDS011;9350;53.176;8.194;2023-11-19T09:39:48;49.08;;;5.43;;
18443;SDS011;9350;53.176;8.194;2023-11-19T09:42:14;59.50;;;6.72;;
18443;SDS011;9350;53.176;8.194;2023-11-19T09:44:42;61.60;;;6.68;;
18443;SDS011;9350;53.176;8.194;2023-11-19T09:47:09;37.05;;;4.75;;
18443;SDS011;9350;53.176;8.194;2023-11-19T09:49:38;53.28;;;5.53;;
18443;SDS011;9350;53.176;8.194;2023-11-19T09:52:05;48.60;;;5.38;;
18443;SDS011;9350;53.176;8.194;2023-11-19T09:54:32;55.63;;;6.38;;
18443;SDS011;9350;53.176;8.194;2023-11-19T09:57:00;50.58;;;5.13;;
18443;SDS011;9350;53.176;8.194;2023-11-19T09:59:29;42.13;;;5.47;;
18443;SDS011;9350;53.176;8.194;2023-11-19T10:01:56;47.42;;;5.18;;
18443;SDS011;9350;53.176;8.194;2023-11-19T10:04:23;52.55;;;6.88;;
18443;SDS011;9350;53.176;8.194;2023-11-19T10:06:51;54.83;;;6.40;;
18443;SDS011;9350;53.176;8.194;2023-11-19T10:09:18;54.72;;;6.70;;
18443;SDS011;9350;53.176;8.194;2023-11-19T10:11:45;45.92;;;7.07;;
18443;SDS011;9350;53.176;8.194;2023-11-19T10:14:13;59.47;;;6.88;;
18443;SDS011;9350;53.176;8.194;2023-11-19T10:16:41;67.22;;;6.20;;
18443;SDS011;9350;53.176;8.194;2023-11-19T10:19:08;48.05;;;5.82;;
18443;SDS011;9350;53.176;8.194;2023-11-19T10:21:38;71.78;;;7.25;;
18443;SDS011;9350;53.176;8.194;2023-11-19T10:24:05;47.78;;;6.50;;
18443;SDS011;9350;53.176;8.194;2023-11-19T10:26:32;55.83;;;5.32;;
18443;SDS011;9350;53.176;8.194;2023-11-19T10:28:59;54.53;;;4.97;;
18443;SDS011;9350;53.176;8.194;2023-11-19T10:31:27;42.38;;;6.22;;
18443;SDS011;9350;53.176;8.194;2023-11-19T10:33:54;57.85;;;6.38;;
18443;SDS011;9350;53.176;8.194;2023-11-19T10:36:21;57.55;;;6.20;;
18443;SDS011;9350;53.176;8.194;2023-11-19T10:38:52;70.28;;;6.05;;
18443;SDS011;9350;53.176;8.194;2023-11-19T10:41:28;59.97;;;5.28;;
18443;SDS011;9350;53.176;8.194;2023-11-19T10:43:55;55.95;;;5.53;;
18443;SDS011;9350;53.176;8.194;2023-11-19T10:46:22;42.97;;;6.50;;
18443;SDS011;9350;53.176;8.194;2023-11-19T10:52:59;49.47;;;5.63;;
18443;SDS011;9350;53.176;8.194;2023-11-19T10:55:27;62.05;;;6.68;;
18443;SDS011;9350;53.176;8.194;2023-11-19T10:57:56;42.97;;;5.03;;
18443;SDS011;9350;53.176;8.194;2023-11-19T11:00:25;74.63;;;5.95;;
18443;SDS011;9350;53.176;8.194;2023-11-19T11:02:54;47.05;;;5.85;;
18443;SDS011;9350;53.176;8.194;2023-11-19T11:05:25;69.00;;;5.90;;
18443;SDS011;9350;53.176;8.194;2023-11-19T11:07:54;56.58;;;5.10;;
18443;SDS011;9350;53.176;8.194;2023-11-19T11:10:23;49.53;;;5.90;;
18443;SDS011;9350;53.176;8.194;2023-11-19T11:12:52;66.90;;;5.53;;
18443;SDS011;9350;53.176;8.194;2023-11-19T11:15:24;65.32;;;5.80;;
18443;SDS011;9350;53.176;8.194;2023-11-19T11:17:54;50.72;;;5.82;;
18443;SDS011;9350;53.176;8.194;2023-11-19T11:20:25;60.08;;;5.55;;
18443;SDS011;9350;53.176;8.194;2023-11-19T11:22:54;56.97;;;6.25;;
18443;SDS011;9350;53.176;8.194;2023-11-19T11:25:36;56.33;;;5.90;;
18443;SDS011;9350;53.176;8.194;2023-11-19T11:28:20;55.25;;;5.25;;
18443;SDS011;9350;53.176;8.194;2023-11-19T11:31:02;54.72;;;5.25;;
18443;SDS011;9350;53.176;8.194;2023-11-19T11:33:44;63.50;;;5.88;;
18443;SDS011;9350;53.176;8.194;2023-11-19T11:36:25;57.33;;;6.78;;
18443;SDS011;9350;53.176;8.194;2023-11-19T11:38:52;66.30;;;7.07;;
18443;SDS011;9350;53.176;8.194;2023-11-19T11:41:26;48.40;;;5.40;;
18443;SDS011;9350;53.176;8.194;2023-11-19T11:43:54;44.35;;;5.28;;
18443;SDS011;9350;53.176;8.194;2023-11-19T11:49:28;56.00;;;5.60;;
18443;SDS011;9350;53.176;8.194;2023-11-19T11:52:02;49.00;;;5.35;;
18443;SDS011;9350;53.176;8.194;2023-11-19T11:54:29;50.83;;;5.72;;
18443;SDS011;9350;53.176;8.194;2023-11-19T11:57:06;47.53;;;4.80;;
18443;SDS011;9350;53.176;8.194;2023-11-19T11:59:42;49.70;;;5.75;;
18443;SDS011;9350;53.176;8.194;2023-11-19T12:02:10;47.65;;;5.50;;
18443;SDS011;9350;53.176;8.194;2023-11-19T12:04:39;42.53;;;5.13;;
18443;SDS011;9350;53.176;8.194;2023-11-19T12:07:06;40.42;;;4.93;;
18443;SDS011;9350;53.176;8.194;2023-11-19T12:09:36;38.45;;;4.32;;
18443;SDS011;9350;53.176;8.194;2023-11-19T12:12:14;35.40;;;4.72;;
18443;SDS011;9350;53.176;8.194;2023-11-19T12:15:00;47.80;;;5.20;;
18443;SDS011;9350;53.176;8.194;2023-11-19T12:17:36;45.33;;;4.32;;
18443;SDS011;9350;53.176;8.194;2023-11-19T12:20:05;45.55;;;4.82;;
18443;SDS011;9350;53.176;8.194;2023-11-19T12:22:33;29.15;;;4.07;;
18443;SDS011;9350;53.176;8.194;2023-11-19T12:25:02;33.78;;;3.97;;
18443;SDS011;9350;53.176;8.194;2023-11-19T12:27:31;31.45;;;3.92;;
18443;SDS011;9350;53.176;8.194;2023-11-19T12:29:58;25.65;;;3.22;;
18443;SDS011;9350;53.176;8.194;2023-11-19T12:32:25;29.27;;;4.32;;
18443;SDS011;9350;53.176;8.194;2023-11-19T12:34:52;29.55;;;3.60;;
18443;SDS011;9350;53.176;8.194;2023-11-19T12:37:20;36.30;;;4.32;;
18443;SDS011;9350;53.176;8.194;2023-11-19T12:39:47;29.52;;;3.80;;
18443;SDS011;9350;53.176;8.194;2023-11-19T12:42:13;33.85;;;4.10;;
18443;SDS011;9350;53.176;8.194;2023-11-19T12:44:54;23.73;;;3.75;;
18443;SDS011;9350;53.176;8.194;2023-11-19T12:47:22;28.48;;;4.50;;
18443;SDS011;9350;53.176;8.194;2023-11-19T12:49:55;24.17;;;3.38;;
18443;SDS011;9350;53.176;8.194;2023-11-19T12:52:22;21.58;;;3.00;;
18443;SDS011;9350;53.176;8.194;2023-11-19T12:54:49;19.65;;;2.38;;
18443;SDS011;9350;53.176;8.194;2023-11-19T12:57:16;21.02;;;2.60;;
18443;SDS011;9350;53.176;8.194;2023-11-19T12:59:53;17.02;;;2.45;;
18443;SDS011;9350;53.176;8.194;2023-11-19T13:02:22;15.23;;;2.38;;
18443;SDS011;9350;53.176;8.194;2023-11-19T13:04:49;17.67;;;2.53;;
18443;SDS011;9350;53.176;8.194;2023-11-19T13:07:20;20.17;;;3.20;;
18443;SDS011;9350;53.176;8.194;2023-11-19T13:09:47;12.10;;;2.35;;
18443;SDS011;9350;53.176;8.194;2023-11-19T13:12:13;12.95;;;2.13;;
18443;SDS011;9350;53.176;8.194;2023-11-19T13:14:41;14.55;;;2.22;;
18443;SDS011;9350;53.176;8.194;2023-11-19T13:17:13;16.30;;;2.58;;
18443;SDS011;9350;53.176;8.194;2023-11-19T13:19:40;20.77;;;2.35;;
18443;SDS011;9350;53.176;8.194;2023-11-19T13:22:07;13.15;;;2.00;;
18443;SDS011;9350;53.176;8.194;2023-11-19T13:24:34;17.73;;;2.50;;
18443;SDS011;9350;53.176;8.194;2023-11-19T13:27:00;19.83;;;3.47;;
18443;SDS011;9350;53.176;8.194;2023-11-19T13:29:27;20.70;;;2.63;;
18443;SDS011;9350;53.176;8.194;2023-11-19T13:31:54;26.83;;;2.90;;
18443;SDS011;9350;53.176;8.194;2023-11-19T13:34:22;18.55;;;2.92;;
18443;SDS011;9350;53.176;8.194;2023-11-19T13:36:48;19.75;;;3.05;;
18443;SDS011;9350;53.176;8.194;2023-11-19T13:39:15;23.38;;;3.15;;
18443;SDS011;9350;53.176;8.194;2023-11-19T13:41:47;54.13;;;8.15;;
18443;SDS011;9350;53.176;8.194;2023-11-19T13:44:15;25.02;;;4.05;;
18443;SDS011;9350;53.176;8.194;2023-11-19T13:46:43;27.20;;;4.07;;
18443;SDS011;9350;53.176;8.194;2023-11-19T13:49:10;32.47;;;4.38;;
18443;SDS011;9350;53.176;8.194;2023-11-19T13:51:38;24.13;;;3.63;;
18443;SDS011;9350;53.176;8.194;2023-11-19T13:54:05;24.50;;;3.65;;
18443;SDS011;9350;53.176;8.194;2023-11-19T13:56:32;27.80;;;4.10;;
18443;SDS011;9350;53.176;8.194;2023-11-19T13:58:58;28.27;;;3.97;;
18443;SDS011;9350;53.176;8.194;2023-11-19T14:01:25;29.67;;;3.53;;
18443;SDS011;9350;53.176;8.194;2023-11-19T14:03:52;25.83;;;3.83;;
18443;SDS011;9350;53.176;8.194;2023-11-19T14:06:19;33.45;;;3.45;;
18443;SDS011;9350;53.176;8.194;2023-11-19T14:08:47;26.52;;;3.38;;
18443;SDS011;9350;53.176;8.194;2023-11-19T14:11:14;27.42;;;3.53;;
18443;SDS011;9350;53.176;8.194;2023-11-19T14:13:41;39.97;;;4.13;;
18443;SDS011;9350;53.176;8.194;2023-11-19T14:16:08;31.63;;;4.07;;
18443;SDS011;9350;53.176;8.194;2023-11-19T14:18:35;28.02;;;3.97;;
18443;SDS011;9350;53.176;8.194;2023-11-19T14:21:02;28.25;;;4.55;;
18443;SDS011;9350;53.176;8.194;2023-11-19T14:23:30;31.52;;;3.78;;
18443;SDS011;9350;53.176;8.194;2023-11-19T14:25:58;26.85;;;3.78;;
18443;SDS011;9350;53.176;8.194;2023-11-19T14:28:24;25.88;;;3.35;;
18443;SDS011;9350;53.176;8.194;2023-11-19T14:30:52;24.70;;;4.07;;
18443;SDS011;9350;53.176;8.194;2023-11-19T14:33:21;22.35;;;3.47;;
18443;SDS011;9350;53.176;8.194;2023-11-19T14:35:48;22.92;;;3.30;;
18443;SDS011;9350;53.176;8.194;2023-11-19T14:38:15;23.77;;;3.45;;
18443;SDS011;9350;53.176;8.194;2023-11-19T14:40:42;22.20;;;3.10;;
18443;SDS011;9350;53.176;8.194;2023-11-19T14:43:10;16.20;;;2.70;;
18443;SDS011;9350;53.176;8.194;2023-11-19T14:45:37;27.40;;;3.67;;
18443;SDS011;9350;53.176;8.194;2023-11-19T14:48:05;21.40;;;2.75;;
18443;SDS011;9350;53.176;8.194;2023-11-19T14:50:31;22.02;;;3.17;;
18443;SDS011;9350;53.176;8.194;2023-11-19T14:52:58;22.70;;;3.17;;
18443;SDS011;9350;53.176;8.194;2023-11-19T14:55:25;21.27;;;2.97;;